sensor_id;sensor_type;location;lat;lon;timestamp;P1;durP1;ratioP1;P2;durP2;ratioP2
49764;SDS011;35657;51.204;-4.130;2023-02-21T00:00:37;1.48;;;0.50;;
49764;SDS011;35657;51.204;-4.130;2023-02-21T00:03:21;1.60;;;0.50;;
49764;SDS011;35657;51.204;-4.130;2023-02-21T00:06:08;0.85;;;0.50;;
49764;SDS011;35657;51.204;-4.130;2023-02-21T00:08:52;1.05;;;0.55;;
49764;SDS011;35657;51.204;-4.130;2023-02-21T00:11:40;1.45;;;0.43;;
49764;SDS011;35657;51.204;-4.130;2023-02-21T00:14:25;1.30;;;0.47;;
49764;SDS011;35657;51.204;-4.130;2023-02-21T00:17:09;0.47;;;0.40;;
49764;SDS011;35657;51.204;-4.130;2023-02-21T00:19:54;0.70;;;0.30;;
49764;SDS011;35657;51.204;-4.130;2023-02-21T00:22:39;0.40;;;0.30;;
49764;SDS011;35657;51.204;-4.130;2023-02-21T00:28:07;0.85;;;0.57;;
49764;SDS011;35657;51.204;-4.130;2023-02-21T00:30:51;0.85;;;0.40;;
49764;SDS011;35657;51.204;-4.130;2023-02-21T00:33:36;0.57;;;0.30;;
49764;SDS011;35657;51.204;-4.130;2023-02-21T00:36:20;0.90;;;0.50;;
49764;SDS011;35657;51.204;-4.130;2023-02-21T00:39:04;3.03;;;0.50;;
49764;SDS011;35657;51.204;-4.130;2023-02-21T00:41:48;0.90;;;0.50;;
49764;SDS011;35657;51.204;-4.130;2023-02-21T00:44:32;0.57;;;0.40;;
49764;SDS011;35657;51.204;-4.130;2023-02-21T00:47:16;0.80;;;0.30;;
49764;SDS011;35657;51.204;-4.130;2023-02-21T00:50:00;1.50;;;0.50;;
49764;SDS011;35657;51.204;-4.130;2023-02-21T00:52:45;2.67;;;0.60;;
49764;SDS011;35657;51.204;-4.130;2023-02-21T00:55:29;0.45;;;0.40;;
49764;SDS011;35657;51.204;-4.130;2023-02-21T00:58:13;1.00;;;0.60;;
49764;SDS011;35657;51.204;-4.130;2023-02-21T01:00:57;0.85;;;0.40;;
49764;SDS011;35657;51.204;-4.130;2023-02-21T01:03:41;0.60;;;0.57;;
49764;SDS011;35657;51.204;-4.130;2023-02-21T01:06:25;4.85;;;1.15;;
49764;SDS011;35657;51.204;-4.130;2023-02-21T01:09:09;0.43;;;0.30;;
49764;SDS011;35657;51.204;-4.130;2023-02-21T01:11:53;0.88;;;0.38;;
49764;SDS011;35657;51.204;-4.130;2023-02-21T01:14:37;0.50;;;0.30;;
49764;SDS011;35657;51.204;-4.130;2023-02-21T01:17:21;0.45;;;0.38;;
49764;SDS011;35657;51.204;-4.130;2023-02-21T01:20:06;1.42;;;0.43;;
49764;SDS011;35657;51.204;-4.130;2023-02-21T01:22:50;0.40;;;0.30;;
49764;SDS011;35657;51.204;-4.130;2023-02-21T01:25:34;0.43;;;0.30;;
49764;SDS011;35657;51.204;-4.130;2023-02-21T01:28:18;3.25;;;2.03;;
49764;SDS011;35657;51.204;-4.130;2023-02-21T01:31:02;14.13;;;6.95;;
49764;SDS011;35657;51.204;-4.130;2023-02-21T01:33:47;8.43;;;4.57;;
49764;SDS011;35657;51.204;-4.130;2023-02-21T01:36:31;11.93;;;5.97;;
49764;SDS011;35657;51.204;-4.130;2023-02-21T01:39:15;6.95;;;3.80;;
49764;SDS011;35657;51.204;-4.130;2023-02-21T01:42:00;4.70;;;2.45;;
49764;SDS011;35657;51.204;-4.130;2023-02-21T01:44:45;5.80;;;2.35;;
49764;SDS011;35657;51.204;-4.130;2023-02-21T01:47:31;5.85;;;3.63;;
49764;SDS011;35657;51.204;-4.130;2023-02-21T01:50:20;2.67;;;1.50;;
49764;SDS011;35657;51.204;-4.130;2023-02-21T01:53:13;3.10;;;1.45;;
49764;SDS011;35657;51.204;-4.130;2023-02-21T01:56:07;2.85;;;1.58;;
49764;SDS011;35657;51.204;-4.130;2023-02-21T01:58:53;3.20;;;1.88;;
49764;SDS011;35657;51.204;-4.130;2023-02-21T02:01:42;1.88;;;1.05;;
49764;SDS011;35657;51.204;-4.130;2023-02-21T02:04:32;2.45;;;1.55;;
49764;SDS011;35657;51.204;-4.130;2023-02-21T02:07:17;3.97;;;2.05;;
49764;SDS011;35657;51.204;-4.130;2023-02-21T02:10:03;3.70;;;1.67;;
49764;SDS011;35657;51.204;-4.130;2023-02-21T02:21:52;1.58;;;0.93;;
49764;SDS011;35657;51.204;-4.130;2023-02-21T02:24:33;3.65;;;2.00;;
49764;SDS011;35657;51.204;-4.130;2023-02-21T02:35:28;2.78;;;1.85;;
49764;SDS011;35657;51.204;-4.130;2023-02-21T02:37:59;1.98;;;1.02;;
49764;SDS011;35657;51.204;-4.130;2023-02-21T02:40:41;3.45;;;1.27;;
49764;SDS011;35657;51.204;-4.130;2023-02-21T02:43:21;2.53;;;1.25;;
49764;SDS011;35657;51.204;-4.130;2023-02-21T02:48:39;1.85;;;1.17;;
49764;SDS011;35657;51.204;-4.130;2023-02-21T02:51:10;2.65;;;1.38;;
49764;SDS011;35657;51.204;-4.130;2023-02-21T02:53:38;3.72;;;1.08;;
49764;SDS011;35657;51.204;-4.130;2023-02-21T02:56:08;1.58;;;0.90;;
49764;SDS011;35657;51.204;-4.130;2023-02-21T02:58:39;0.75;;;0.55;;
49764;SDS011;35657;51.204;-4.130;2023-02-21T03:14:51;1.25;;;0.80;;
49764;SDS011;35657;51.204;-4.130;2023-02-21T03:17:48;1.92;;;1.58;;
49764;SDS011;35657;51.204;-4.130;2023-02-21T03:20:24;1.27;;;0.88;;
49764;SDS011;35657;51.204;-4.130;2023-02-21T03:22:51;1.02;;;0.60;;
49764;SDS011;35657;51.204;-4.130;2023-02-21T03:25:20;1.25;;;0.68;;
49764;SDS011;35657;51.204;-4.130;2023-02-21T03:27:47;1.95;;;0.90;;
49764;SDS011;35657;51.204;-4.130;2023-02-21T03:30:16;1.83;;;0.40;;
49764;SDS011;35657;51.204;-4.130;2023-02-21T03:32:44;0.70;;;0.50;;
49764;SDS011;35657;51.204;-4.130;2023-02-21T03:35:12;0.93;;;0.50;;
49764;SDS011;35657;51.204;-4.130;2023-02-21T03:37:57;0.77;;;0.55;;
49764;SDS011;35657;51.204;-4.130;2023-02-21T03:42:54;0.90;;;0.50;;
49764;SDS011;35657;51.204;-4.130;2023-02-21T03:45:21;0.80;;;0.43;;
49764;SDS011;35657;51.204;-4.130;2023-02-21T03:47:47;1.00;;;0.47;;
49764;SDS011;35657;51.204;-4.130;2023-02-21T03:50:13;1.48;;;0.68;;
49764;SDS011;35657;51.204;-4.130;2023-02-21T03:52:38;1.58;;;0.68;;
49764;SDS011;35657;51.204;-4.130;2023-02-21T03:55:05;1.33;;;0.50;;
49764;SDS011;35657;51.204;-4.130;2023-02-21T03:57:32;3.15;;;1.00;;
49764;SDS011;35657;51.204;-4.130;2023-02-21T04:00:00;1.13;;;0.60;;
49764;SDS011;35657;51.204;-4.130;2023-02-21T04:02:26;2.30;;;0.45;;
49764;SDS011;35657;51.204;-4.130;2023-02-21T04:04:52;2.22;;;0.40;;
49764;SDS011;35657;51.204;-4.130;2023-02-21T04:07:18;0.73;;;0.47;;
49764;SDS011;35657;51.204;-4.130;2023-02-21T04:09:45;0.95;;;0.60;;
49764;SDS011;35657;51.204;-4.130;2023-02-21T04:12:11;1.88;;;0.55;;
49764;SDS011;35657;51.204;-4.130;2023-02-21T04:14:37;1.13;;;0.40;;
49764;SDS011;35657;51.204;-4.130;2023-02-21T04:17:03;0.85;;;0.40;;
49764;SDS011;35657;51.204;-4.130;2023-02-21T04:19:29;0.45;;;0.30;;
49764;SDS011;35657;51.204;-4.130;2023-02-21T04:21:55;0.73;;;0.43;;
49764;SDS011;35657;51.204;-4.130;2023-02-21T04:24:21;0.20;;;0.13;;
49764;SDS011;35657;51.204;-4.130;2023-02-21T04:26:46;1.10;;;0.40;;
49764;SDS011;35657;51.204;-4.130;2023-02-21T04:29:12;1.52;;;0.50;;
49764;SDS011;35657;51.204;-4.130;2023-02-21T04:31:38;4.13;;;0.82;;
49764;SDS011;35657;51.204;-4.130;2023-02-21T04:34:04;1.52;;;0.52;;
49764;SDS011;35657;51.204;-4.130;2023-02-21T04:36:30;0.55;;;0.30;;
49764;SDS011;35657;51.204;-4.130;2023-02-21T04:38:55;0.47;;;0.40;;
49764;SDS011;35657;51.204;-4.130;2023-02-21T04:41:22;0.90;;;0.60;;
49764;SDS011;35657;51.204;-4.130;2023-02-21T04:43:48;2.22;;;0.50;;
49764;SDS011;35657;51.204;-4.130;2023-02-21T04:46:14;1.05;;;0.60;;
49764;SDS011;35657;51.204;-4.130;2023-02-21T04:48:45;1.13;;;0.50;;
49764;SDS011;35657;51.204;-4.130;2023-02-21T04:51:12;1.92;;;0.60;;
49764;SDS011;35657;51.204;-4.130;2023-02-21T04:53:39;0.88;;;0.50;;
49764;SDS011;35657;51.204;-4.130;2023-02-21T04:56:05;1.38;;;0.60;;
49764;SDS011;35657;51.204;-4.130;2023-02-21T04:58:31;1.83;;;0.80;;
49764;SDS011;35657;51.204;-4.130;2023-02-21T05:00:57;0.95;;;0.60;;
49764;SDS011;35657;51.204;-4.130;2023-02-21T05:03:23;2.20;;;0.63;;
49764;SDS011;35657;51.204;-4.130;2023-02-21T05:05:49;1.17;;;0.70;;
49764;SDS011;35657;51.204;-4.130;2023-02-21T05:08:15;0.90;;;0.50;;
49764;SDS011;35657;51.204;-4.130;2023-02-21T05:10:41;1.23;;;0.52;;
49764;SDS011;35657;51.204;-4.130;2023-02-21T05:13:06;0.95;;;0.47;;
49764;SDS011;35657;51.204;-4.130;2023-02-21T05:15:32;1.73;;;0.60;;
49764;SDS011;35657;51.204;-4.130;2023-02-21T05:17:58;3.35;;;0.93;;
49764;SDS011;35657;51.204;-4.130;2023-02-21T05:20:23;1.77;;;0.90;;
49764;SDS011;35657;51.204;-4.130;2023-02-21T05:22:49;1.23;;;0.60;;
49764;SDS011;35657;51.204;-4.130;2023-02-21T05:27:42;1.55;;;0.55;;
49764;SDS011;35657;51.204;-4.130;2023-02-21T05:30:08;1.17;;;0.77;;
49764;SDS011;35657;51.204;-4.130;2023-02-21T05:32:34;1.35;;;0.70;;
49764;SDS011;35657;51.204;-4.130;2023-02-21T05:34:59;1.35;;;0.60;;
49764;SDS011;35657;51.204;-4.130;2023-02-21T05:37:25;1.40;;;0.63;;
49764;SDS011;35657;51.204;-4.130;2023-02-21T05:39:51;1.08;;;0.60;;
49764;SDS011;35657;51.204;-4.130;2023-02-21T05:42:16;0.70;;;0.40;;
49764;SDS011;35657;51.204;-4.130;2023-02-21T05:44:43;0.98;;;0.50;;
49764;SDS011;35657;51.204;-4.130;2023-02-21T05:47:11;1.40;;;0.65;;
49764;SDS011;35657;51.204;-4.130;2023-02-21T05:49:37;1.10;;;0.88;;
49764;SDS011;35657;51.204;-4.130;2023-02-21T05:52:03;1.52;;;0.98;;
49764;SDS011;35657;51.204;-4.130;2023-02-21T05:54:29;0.93;;;0.40;;
49764;SDS011;35657;51.204;-4.130;2023-02-21T05:56:55;1.52;;;0.98;;
49764;SDS011;35657;51.204;-4.130;2023-02-21T05:59:21;1.58;;;0.77;;
49764;SDS011;35657;51.204;-4.130;2023-02-21T06:01:47;2.30;;;1.15;;
49764;SDS011;35657;51.204;-4.130;2023-02-21T06:04:13;1.88;;;1.02;;
49764;SDS011;35657;51.204;-4.130;2023-02-21T06:06:39;1.95;;;1.02;;
49764;SDS011;35657;51.204;-4.130;2023-02-21T06:09:06;1.58;;;0.98;;
49764;SDS011;35657;51.204;-4.130;2023-02-21T06:11:32;2.22;;;0.90;;
49764;SDS011;35657;51.204;-4.130;2023-02-21T06:14:01;2.00;;;1.05;;
49764;SDS011;35657;51.204;-4.130;2023-02-21T06:16:31;1.80;;;0.98;;
49764;SDS011;35657;51.204;-4.130;2023-02-21T06:18:59;2.33;;;1.15;;
49764;SDS011;35657;51.204;-4.130;2023-02-21T06:21:24;2.28;;;1.00;;
49764;SDS011;35657;51.204;-4.130;2023-02-21T06:23:50;2.08;;;1.05;;
49764;SDS011;35657;51.204;-4.130;2023-02-21T06:26:16;2.28;;;1.30;;
49764;SDS011;35657;51.204;-4.130;2023-02-21T06:28:43;1.52;;;0.98;;
49764;SDS011;35657;51.204;-4.130;2023-02-21T06:31:08;2.83;;;1.23;;
49764;SDS011;35657;51.204;-4.130;2023-02-21T06:33:34;1.58;;;0.73;;
49764;SDS011;35657;51.204;-4.130;2023-02-21T06:36:11;1.70;;;1.00;;
49764;SDS011;35657;51.204;-4.130;2023-02-21T06:38:39;2.45;;;0.90;;
49764;SDS011;35657;51.204;-4.130;2023-02-21T06:41:07;1.75;;;0.80;;
49764;SDS011;35657;51.204;-4.130;2023-02-21T06:43:34;1.42;;;0.98;;
49764;SDS011;35657;51.204;-4.130;2023-02-21T06:46:03;3.08;;;1.88;;
49764;SDS011;35657;51.204;-4.130;2023-02-21T06:48:29;3.67;;;1.73;;
49764;SDS011;35657;51.204;-4.130;2023-02-21T06:50:56;3.80;;;2.03;;
49764;SDS011;35657;51.204;-4.130;2023-02-21T06:53:21;4.85;;;2.63;;
49764;SDS011;35657;51.204;-4.130;2023-02-21T06:55:47;3.85;;;2.45;;
49764;SDS011;35657;51.204;-4.130;2023-02-21T06:58:13;5.50;;;2.50;;
49764;SDS011;35657;51.204;-4.130;2023-02-21T07:00:38;7.40;;;3.65;;
49764;SDS011;35657;51.204;-4.130;2023-02-21T07:03:04;4.10;;;2.50;;
49764;SDS011;35657;51.204;-4.130;2023-02-21T07:05:30;4.03;;;1.95;;
49764;SDS011;35657;51.204;-4.130;2023-02-21T07:08:01;2.90;;;1.77;;
49764;SDS011;35657;51.204;-4.130;2023-02-21T07:10:28;4.88;;;2.63;;
49764;SDS011;35657;51.204;-4.130;2023-02-21T07:12:54;4.20;;;2.58;;
49764;SDS011;35657;51.204;-4.130;2023-02-21T07:15:20;7.18;;;3.45;;
49764;SDS011;35657;51.204;-4.130;2023-02-21T07:17:46;3.75;;;2.13;;
49764;SDS011;35657;51.204;-4.130;2023-02-21T07:20:11;6.90;;;6.05;;
49764;SDS011;35657;51.204;-4.130;2023-02-21T07:22:37;2.75;;;1.60;;
49764;SDS011;35657;51.204;-4.130;2023-02-21T07:25:03;2.70;;;1.35;;
49764;SDS011;35657;51.204;-4.130;2023-02-21T07:27:29;3.25;;;1.77;;
49764;SDS011;35657;51.204;-4.130;2023-02-21T07:29:55;3.88;;;1.48;;
49764;SDS011;35657;51.204;-4.130;2023-02-21T07:32:20;3.67;;;2.47;;
49764;SDS011;35657;51.204;-4.130;2023-02-21T07:34:46;1.85;;;1.00;;
49764;SDS011;35657;51.204;-4.130;2023-02-21T07:37:12;1.70;;;1.17;;
49764;SDS011;35657;51.204;-4.130;2023-02-21T07:39:38;3.78;;;1.75;;
49764;SDS011;35657;51.204;-4.130;2023-02-21T07:42:04;2.15;;;1.10;;
49764;SDS011;35657;51.204;-4.130;2023-02-21T07:44:32;1.67;;;1.13;;
49764;SDS011;35657;51.204;-4.130;2023-02-21T07:46:58;1.70;;;1.15;;
49764;SDS011;35657;51.204;-4.130;2023-02-21T07:49:23;2.92;;;1.35;;
49764;SDS011;35657;51.204;-4.130;2023-02-21T07:51:49;8.38;;;2.80;;
49764;SDS011;35657;51.204;-4.130;2023-02-21T07:54:16;6.18;;;2.95;;
49764;SDS011;35657;51.204;-4.130;2023-02-21T07:56:43;5.75;;;1.77;;
49764;SDS011;35657;51.204;-4.130;2023-02-21T07:59:12;5.55;;;1.60;;
49764;SDS011;35657;51.204;-4.130;2023-02-21T08:01:38;2.63;;;1.13;;
49764;SDS011;35657;51.204;-4.130;2023-02-21T08:04:04;1.67;;;0.90;;
49764;SDS011;35657;51.204;-4.130;2023-02-21T08:06:30;1.83;;;0.70;;
49764;SDS011;35657;51.204;-4.130;2023-02-21T08:08:58;1.50;;;0.80;;
49764;SDS011;35657;51.204;-4.130;2023-02-21T08:11:23;1.75;;;0.82;;
49764;SDS011;35657;51.204;-4.130;2023-02-21T08:13:49;0.95;;;0.60;;
49764;SDS011;35657;51.204;-4.130;2023-02-21T08:16:15;2.60;;;1.10;;
49764;SDS011;35657;51.204;-4.130;2023-02-21T08:18:40;1.88;;;0.80;;
49764;SDS011;35657;51.204;-4.130;2023-02-21T08:21:07;2.40;;;0.98;;
49764;SDS011;35657;51.204;-4.130;2023-02-21T08:23:34;2.22;;;0.88;;
49764;SDS011;35657;51.204;-4.130;2023-02-21T08:26:01;1.20;;;0.70;;
49764;SDS011;35657;51.204;-4.130;2023-02-21T08:28:28;1.95;;;0.70;;
49764;SDS011;35657;51.204;-4.130;2023-02-21T08:30:54;0.52;;;0.50;;
49764;SDS011;35657;51.204;-4.130;2023-02-21T08:33:19;1.52;;;0.90;;
49764;SDS011;35657;51.204;-4.130;2023-02-21T08:35:45;2.63;;;0.80;;
49764;SDS011;35657;51.204;-4.130;2023-02-21T08:38:11;1.48;;;0.88;;
49764;SDS011;35657;51.204;-4.130;2023-02-21T08:40:37;1.83;;;0.77;;
49764;SDS011;35657;51.204;-4.130;2023-02-21T08:43:02;0.95;;;0.60;;
49764;SDS011;35657;51.204;-4.130;2023-02-21T08:45:29;1.70;;;0.75;;
49764;SDS011;35657;51.204;-4.130;2023-02-21T08:47:56;0.80;;;0.40;;
49764;SDS011;35657;51.204;-4.130;2023-02-21T08:50:23;0.85;;;0.52;;
49764;SDS011;35657;51.204;-4.130;2023-02-21T08:52:51;1.10;;;0.57;;
49764;SDS011;35657;51.204;-4.130;2023-02-21T08:55:17;1.38;;;0.43;;
49764;SDS011;35657;51.204;-4.130;2023-02-21T08:57:43;0.75;;;0.45;;
49764;SDS011;35657;51.204;-4.130;2023-02-21T09:00:12;1.38;;;0.50;;
49764;SDS011;35657;51.204;-4.130;2023-02-21T09:02:39;1.10;;;0.57;;
49764;SDS011;35657;51.204;-4.130;2023-02-21T09:05:12;1.48;;;0.60;;
49764;SDS011;35657;51.204;-4.130;2023-02-21T09:07:43;1.23;;;0.60;;
49764;SDS011;35657;51.204;-4.130;2023-02-21T09:10:11;1.02;;;0.60;;
49764;SDS011;35657;51.204;-4.130;2023-02-21T09:12:37;0.77;;;0.63;;
49764;SDS011;35657;51.204;-4.130;2023-02-21T09:15:04;1.13;;;0.52;;
49764;SDS011;35657;51.204;-4.130;2023-02-21T09:17:30;0.85;;;0.50;;
49764;SDS011;35657;51.204;-4.130;2023-02-21T09:19:59;0.75;;;0.47;;
49764;SDS011;35657;51.204;-4.130;2023-02-21T09:22:26;1.58;;;0.63;;
49764;SDS011;35657;51.204;-4.130;2023-02-21T09:24:52;1.00;;;0.60;;
49764;SDS011;35657;51.204;-4.130;2023-02-21T09:27:18;1.25;;;0.70;;
49764;SDS011;35657;51.204;-4.130;2023-02-21T09:29:44;1.25;;;0.70;;
49764;SDS011;35657;51.204;-4.130;2023-02-21T09:32:11;1.15;;;0.93;;
49764;SDS011;35657;51.204;-4.130;2023-02-21T09:34:37;0.95;;;0.55;;
49764;SDS011;35657;51.204;-4.130;2023-02-21T09:37:04;1.50;;;0.80;;
49764;SDS011;35657;51.204;-4.130;2023-02-21T09:39:30;1.38;;;0.65;;
49764;SDS011;35657;51.204;-4.130;2023-02-21T09:41:56;1.05;;;0.50;;
49764;SDS011;35657;51.204;-4.130;2023-02-21T09:44:23;1.27;;;0.55;;
49764;SDS011;35657;51.204;-4.130;2023-02-21T09:46:53;0.73;;;0.50;;
49764;SDS011;35657;51.204;-4.130;2023-02-21T09:49:36;0.95;;;0.50;;
49764;SDS011;35657;51.204;-4.130;2023-02-21T09:52:06;1.23;;;0.70;;
49764;SDS011;35657;51.204;-4.130;2023-02-21T09:54:45;1.50;;;0.70;;
49764;SDS011;35657;51.204;-4.130;2023-02-21T09:57:15;1.60;;;0.88;;
49764;SDS011;35657;51.204;-4.130;2023-02-21T09:59:42;1.60;;;0.80;;
49764;SDS011;35657;51.204;-4.130;2023-02-21T10:07:21;1.65;;;0.90;;
49764;SDS011;35657;51.204;-4.130;2023-02-21T10:10:08;2.30;;;1.05;;
49764;SDS011;35657;51.204;-4.130;2023-02-21T10:18:12;7.25;;;2.78;;
49764;SDS011;35657;51.204;-4.130;2023-02-21T10:20:57;1.70;;;1.15;;
49764;SDS011;35657;51.204;-4.130;2023-02-21T10:26:05;1.85;;;1.13;;
49764;SDS011;35657;51.204;-4.130;2023-02-21T10:28:34;1.45;;;0.80;;
49764;SDS011;35657;51.204;-4.130;2023-02-21T10:31:06;1.77;;;1.00;;
49764;SDS011;35657;51.204;-4.130;2023-02-21T10:33:36;2.00;;;0.90;;
49764;SDS011;35657;51.204;-4.130;2023-02-21T10:36:14;2.15;;;1.55;;
49764;SDS011;35657;51.204;-4.130;2023-02-21T10:38:45;1.42;;;0.93;;
49764;SDS011;35657;51.204;-4.130;2023-02-21T10:41:18;2.00;;;1.30;;
49764;SDS011;35657;51.204;-4.130;2023-02-21T10:43:47;1.83;;;1.13;;
49764;SDS011;35657;51.204;-4.130;2023-02-21T10:51:39;2.47;;;1.33;;
49764;SDS011;35657;51.204;-4.130;2023-02-21T10:54:38;2.78;;;1.00;;
49764;SDS011;35657;51.204;-4.130;2023-02-21T10:56:56;2.20;;;1.48;;
49764;SDS011;35657;51.204;-4.130;2023-02-21T10:59:26;1.90;;;1.40;;
49764;SDS011;35657;51.204;-4.130;2023-02-21T11:01:54;3.53;;;2.05;;
49764;SDS011;35657;51.204;-4.130;2023-02-21T11:06:50;1.85;;;1.17;;
49764;SDS011;35657;51.204;-4.130;2023-02-21T11:17:18;2.70;;;1.00;;
49764;SDS011;35657;51.204;-4.130;2023-02-21T11:25:02;1.58;;;0.95;;
49764;SDS011;35657;51.204;-4.130;2023-02-21T11:30:12;2.35;;;1.30;;
49764;SDS011;35657;51.204;-4.130;2023-02-21T11:32:40;2.92;;;1.38;;
49764;SDS011;35657;51.204;-4.130;2023-02-21T11:38:03;2.45;;;1.50;;
49764;SDS011;35657;51.204;-4.130;2023-02-21T11:43:25;3.33;;;1.02;;
49764;SDS011;35657;51.204;-4.130;2023-02-21T11:48:30;1.92;;;1.27;;
49764;SDS011;35657;51.204;-4.130;2023-02-21T11:51:03;1.60;;;0.90;;
49764;SDS011;35657;51.204;-4.130;2023-02-21T11:53:38;1.92;;;1.00;;
49764;SDS011;35657;51.204;-4.130;2023-02-21T11:59:02;1.63;;;0.93;;
49764;SDS011;35657;51.204;-4.130;2023-02-21T12:15:29;3.65;;;1.23;;
49764;SDS011;35657;51.204;-4.130;2023-02-21T12:23:55;1.77;;;1.25;;
49764;SDS011;35657;51.204;-4.130;2023-02-21T12:26:58;3.45;;;1.30;;
49764;SDS011;35657;51.204;-4.130;2023-02-21T12:29:31;1.77;;;1.30;;
49764;SDS011;35657;51.204;-4.130;2023-02-21T12:37:53;4.03;;;1.55;;
49764;SDS011;35657;51.204;-4.130;2023-02-21T12:51:46;2.90;;;1.70;;
49764;SDS011;35657;51.204;-4.130;2023-02-21T12:57:07;3.38;;;1.92;;
49764;SDS011;35657;51.204;-4.130;2023-02-21T12:59:47;7.68;;;4.20;;
49764;SDS011;35657;51.204;-4.130;2023-02-21T13:02:33;3.88;;;2.17;;
49764;SDS011;35657;51.204;-4.130;2023-02-21T13:05:22;4.35;;;2.17;;
49764;SDS011;35657;51.204;-4.130;2023-02-21T13:08:13;4.00;;;2.35;;
49764;SDS011;35657;51.204;-4.130;2023-02-21T13:10:57;3.67;;;2.08;;
49764;SDS011;35657;51.204;-4.130;2023-02-21T13:13:37;2.40;;;1.45;;
49764;SDS011;35657;51.204;-4.130;2023-02-21T13:16:04;2.28;;;1.52;;
49764;SDS011;35657;51.204;-4.130;2023-02-21T13:24:12;3.95;;;2.28;;
49764;SDS011;35657;51.204;-4.130;2023-02-21T13:29:39;2.63;;;1.42;;
49764;SDS011;35657;51.204;-4.130;2023-02-21T13:34:36;2.80;;;1.83;;
49764;SDS011;35657;51.204;-4.130;2023-02-21T13:37:05;3.17;;;1.35;;
49764;SDS011;35657;51.204;-4.130;2023-02-21T13:39:37;1.80;;;1.27;;
49764;SDS011;35657;51.204;-4.130;2023-02-21T13:42:15;2.65;;;1.63;;
49764;SDS011;35657;51.204;-4.130;2023-02-21T13:44:49;2.33;;;1.75;;
49764;SDS011;35657;51.204;-4.130;2023-02-21T13:47:19;2.92;;;1.65;;
49764;SDS011;35657;51.204;-4.130;2023-02-21T13:49:53;2.85;;;2.00;;
49764;SDS011;35657;51.204;-4.130;2023-02-21T14:11:24;1.60;;;1.17;;
49764;SDS011;35657;51.204;-4.130;2023-02-21T14:14:01;2.38;;;1.30;;
49764;SDS011;35657;51.204;-4.130;2023-02-21T14:16:47;2.00;;;1.80;;
49764;SDS011;35657;51.204;-4.130;2023-02-21T14:21:50;2.67;;;1.73;;
49764;SDS011;35657;51.204;-4.130;2023-02-21T14:24:21;1.65;;;1.20;;
49764;SDS011;35657;51.204;-4.130;2023-02-21T14:26:53;1.73;;;1.20;;
49764;SDS011;35657;51.204;-4.130;2023-02-21T14:42:43;4.15;;;1.92;;
49764;SDS011;35657;51.204;-4.130;2023-02-21T14:45:34;2.08;;;1.23;;
49764;SDS011;35657;51.204;-4.130;2023-02-21T14:54:20;1.70;;;1.33;;
49764;SDS011;35657;51.204;-4.130;2023-02-21T15:02:34;2.53;;;1.60;;
49764;SDS011;35657;51.204;-4.130;2023-02-21T15:10:48;3.50;;;1.90;;
49764;SDS011;35657;51.204;-4.130;2023-02-21T15:13:31;1.92;;;1.23;;
49764;SDS011;35657;51.204;-4.130;2023-02-21T15:15:59;2.20;;;1.52;;
49764;SDS011;35657;51.204;-4.130;2023-02-21T15:23:28;2.60;;;1.40;;
49764;SDS011;35657;51.204;-4.130;2023-02-21T15:25:55;2.83;;;1.48;;
49764;SDS011;35657;51.204;-4.130;2023-02-21T15:28:27;1.67;;;1.20;;
49764;SDS011;35657;51.204;-4.130;2023-02-21T15:31:01;4.30;;;2.40;;
49764;SDS011;35657;51.204;-4.130;2023-02-21T15:33:31;4.03;;;1.70;;
49764;SDS011;35657;51.204;-4.130;2023-02-21T15:36:04;2.38;;;1.80;;
49764;SDS011;35657;51.204;-4.130;2023-02-21T15:38:32;4.53;;;1.90;;
49764;SDS011;35657;51.204;-4.130;2023-02-21T15:44:01;7.05;;;4.68;;
49764;SDS011;35657;51.204;-4.130;2023-02-21T15:46:30;7.07;;;4.18;;
49764;SDS011;35657;51.204;-4.130;2023-02-21T15:49:01;4.38;;;2.55;;
49764;SDS011;35657;51.204;-4.130;2023-02-21T15:51:28;6.18;;;4.07;;
49764;SDS011;35657;51.204;-4.130;2023-02-21T15:54:07;8.90;;;5.88;;
49764;SDS011;35657;51.204;-4.130;2023-02-21T15:56:42;6.00;;;3.42;;
49764;SDS011;35657;51.204;-4.130;2023-02-21T15:59:19;4.57;;;2.67;;
49764;SDS011;35657;51.204;-4.130;2023-02-21T16:04:51;8.38;;;4.55;;
49764;SDS011;35657;51.204;-4.130;2023-02-21T16:09:47;9.90;;;4.63;;
49764;SDS011;35657;51.204;-4.130;2023-02-21T16:12:34;13.43;;;7.30;;
49764;SDS011;35657;51.204;-4.130;2023-02-21T16:15:06;5.88;;;3.67;;
49764;SDS011;35657;51.204;-4.130;2023-02-21T16:17:39;9.50;;;4.80;;
49764;SDS011;35657;51.204;-4.130;2023-02-21T16:22:41;6.00;;;3.72;;
49764;SDS011;35657;51.204;-4.130;2023-02-21T16:27:36;6.05;;;3.10;;
49764;SDS011;35657;51.204;-4.130;2023-02-21T16:30:03;7.22;;;2.97;;
49764;SDS011;35657;51.204;-4.130;2023-02-21T16:32:29;16.27;;;7.05;;
49764;SDS011;35657;51.204;-4.130;2023-02-21T16:34:56;11.77;;;6.32;;
49764;SDS011;35657;51.204;-4.130;2023-02-21T16:37:22;8.73;;;4.47;;
49764;SDS011;35657;51.204;-4.130;2023-02-21T16:39:49;7.47;;;3.53;;
49764;SDS011;35657;51.204;-4.130;2023-02-21T16:42:15;20.33;;;4.65;;
49764;SDS011;35657;51.204;-4.130;2023-02-21T16:44:44;8.20;;;3.50;;
49764;SDS011;35657;51.204;-4.130;2023-02-21T16:47:15;5.50;;;2.78;;
49764;SDS011;35657;51.204;-4.130;2023-02-21T16:49:44;6.18;;;3.92;;
49764;SDS011;35657;51.204;-4.130;2023-02-21T16:52:12;3.25;;;2.30;;
49764;SDS011;35657;51.204;-4.130;2023-02-21T16:54:39;10.27;;;3.05;;
49764;SDS011;35657;51.204;-4.130;2023-02-21T16:57:04;9.40;;;2.90;;
49764;SDS011;35657;51.204;-4.130;2023-02-21T16:59:30;5.78;;;3.30;;
49764;SDS011;35657;51.204;-4.130;2023-02-21T17:01:57;9.43;;;2.85;;
49764;SDS011;35657;51.204;-4.130;2023-02-21T17:04:23;7.05;;;3.28;;
49764;SDS011;35657;51.204;-4.130;2023-02-21T17:06:55;6.22;;;3.00;;
49764;SDS011;35657;51.204;-4.130;2023-02-21T17:09:24;7.97;;;3.00;;
49764;SDS011;35657;51.204;-4.130;2023-02-21T17:11:51;8.38;;;2.80;;
49764;SDS011;35657;51.204;-4.130;2023-02-21T17:14:18;6.82;;;3.08;;
49764;SDS011;35657;51.204;-4.130;2023-02-21T17:16:44;5.72;;;2.38;;
49764;SDS011;35657;51.204;-4.130;2023-02-21T17:19:11;8.02;;;3.00;;
49764;SDS011;35657;51.204;-4.130;2023-02-21T17:21:41;5.05;;;2.95;;
49764;SDS011;35657;51.204;-4.130;2023-02-21T17:24:08;11.07;;;2.78;;
49764;SDS011;35657;51.204;-4.130;2023-02-21T17:26:37;8.00;;;2.67;;
49764;SDS011;35657;51.204;-4.130;2023-02-21T17:29:03;18.85;;;9.48;;
49764;SDS011;35657;51.204;-4.130;2023-02-21T17:31:29;9.98;;;4.30;;
49764;SDS011;35657;51.204;-4.130;2023-02-21T17:33:55;8.15;;;3.53;;
49764;SDS011;35657;51.204;-4.130;2023-02-21T17:36:22;4.50;;;3.22;;
49764;SDS011;35657;51.204;-4.130;2023-02-21T17:38:50;8.65;;;3.88;;
49764;SDS011;35657;51.204;-4.130;2023-02-21T17:41:16;7.72;;;3.30;;
49764;SDS011;35657;51.204;-4.130;2023-02-21T17:43:43;8.23;;;3.55;;
49764;SDS011;35657;51.204;-4.130;2023-02-21T17:46:11;9.30;;;3.58;;
49764;SDS011;35657;51.204;-4.130;2023-02-21T17:48:39;19.02;;;5.45;;
49764;SDS011;35657;51.204;-4.130;2023-02-21T17:51:06;7.03;;;3.40;;
49764;SDS011;35657;51.204;-4.130;2023-02-21T17:53:32;9.60;;;5.90;;
49764;SDS011;35657;51.204;-4.130;2023-02-21T17:55:59;8.35;;;4.13;;
49764;SDS011;35657;51.204;-4.130;2023-02-21T17:58:28;9.65;;;3.00;;
49764;SDS011;35657;51.204;-4.130;2023-02-21T18:00:57;6.43;;;3.17;;
49764;SDS011;35657;51.204;-4.130;2023-02-21T18:03:23;4.63;;;2.78;;
49764;SDS011;35657;51.204;-4.130;2023-02-21T18:05:50;10.73;;;3.95;;
49764;SDS011;35657;51.204;-4.130;2023-02-21T18:08:16;12.50;;;4.13;;
49764;SDS011;35657;51.204;-4.130;2023-02-21T18:10:43;4.53;;;2.42;;
49764;SDS011;35657;51.204;-4.130;2023-02-21T18:13:14;10.60;;;3.92;;
49764;SDS011;35657;51.204;-4.130;2023-02-21T18:15:45;6.47;;;3.80;;
49764;SDS011;35657;51.204;-4.130;2023-02-21T18:18:11;8.50;;;3.20;;
49764;SDS011;35657;51.204;-4.130;2023-02-21T18:20:37;5.97;;;3.15;;
49764;SDS011;35657;51.204;-4.130;2023-02-21T18:23:03;5.25;;;2.85;;
49764;SDS011;35657;51.204;-4.130;2023-02-21T18:25:32;8.98;;;2.80;;
49764;SDS011;35657;51.204;-4.130;2023-02-21T18:27:59;6.95;;;3.35;;